createdAt,value
2018-10-16T00:00:58.088Z,21.13
2018-10-16T00:03:26.758Z,20.23
2018-10-16T00:05:55.043Z,25.43
2018-10-16T00:08:23.341Z,23.37
2018-10-16T00:10:51.700Z,21.47
2018-10-16T00:13:20.098Z,22.30
2018-10-16T00:15:48.386Z,24.00
2018-10-16T00:18:16.988Z,22.48
2018-10-16T00:20:45.330Z,18.85
2018-10-16T00:23:13.770Z,19.33
2018-10-16T00:25:46.036Z,20.45
2018-10-16T00:28:14.519Z,21.37
2018-10-16T00:30:42.877Z,18.83
2018-10-16T00:33:11.358Z,23.62
2018-10-16T00:35:39.646Z,25.45
2018-10-16T00:40:54.015Z,20.90
2018-10-16T00:43:22.403Z,24.90
2018-10-16T00:45:50.888Z,20.50
2018-10-16T00:48:19.256Z,22.83
2018-10-16T00:50:47.730Z,17.90
2018-10-16T00:53:16.633Z,17.90
2018-10-16T00:55:44.915Z,21.43
2018-10-16T00:58:13.461Z,25.23
2018-10-16T01:00:41.740Z,27.30
2018-10-16T01:03:10.185Z,23.30
2018-10-16T01:05:38.502Z,20.00
2018-10-16T01:08:06.846Z,23.25
2018-10-16T01:10:35.188Z,24.03
2018-10-16T01:13:04.057Z,25.75
2018-10-16T01:15:32.401Z,23.87
2018-10-16T01:18:00.861Z,24.57
2018-10-16T01:20:29.264Z,20.43
2018-10-16T01:22:57.663Z,20.37
2018-10-16T01:25:25.964Z,21.87
2018-10-16T01:27:54.250Z,19.43
2018-10-16T01:30:22.739Z,20.62
2018-10-16T01:32:51.075Z,20.12
2018-10-16T01:35:19.363Z,20.12
2018-10-16T01:37:47.664Z,22.63
2018-10-16T01:40:16.069Z,22.00
2018-10-16T01:42:44.394Z,24.17
2018-10-16T01:45:12.701Z,26.48
2018-10-16T01:47:41.028Z,23.55
2018-10-16T01:50:09.609Z,22.90
2018-10-16T01:52:38.045Z,25.02
2018-10-16T01:55:06.317Z,22.37
2018-10-16T01:57:34.742Z,20.95
2018-10-16T02:00:03.023Z,21.82
2018-10-16T02:02:31.649Z,20.43
2018-10-16T02:04:59.985Z,24.03
2018-10-16T02:07:28.291Z,21.00
2018-10-16T02:09:56.633Z,22.05
2018-10-16T02:12:25.092Z,22.87
2018-10-16T02:14:53.497Z,25.20
2018-10-16T02:17:21.767Z,26.82
2018-10-16T02:19:50.200Z,24.90
2018-10-16T02:22:18.608Z,20.90
2018-10-16T02:24:47.119Z,23.00
2018-10-16T02:27:15.419Z,26.70
2018-10-16T02:29:43.769Z,22.07
2018-10-16T02:32:12.068Z,21.33
2018-10-16T02:34:40.654Z,29.43
2018-10-16T02:37:09.655Z,24.95
2018-10-16T02:39:37.999Z,19.45
2018-10-16T02:42:06.870Z,23.80
2018-10-16T02:44:35.221Z,26.17
2018-10-16T02:47:11.472Z,24.70
2018-10-16T02:49:48.763Z,23.67
2018-10-16T02:52:17.107Z,19.77
2018-10-16T02:54:45.425Z,24.60
2018-10-16T02:57:13.767Z,30.95
2018-10-16T02:59:42.105Z,24.23
2018-10-16T03:02:10.517Z,23.02
2018-10-16T03:04:38.842Z,22.52
2018-10-16T03:07:07.269Z,25.85
2018-10-16T03:09:35.788Z,24.37
2018-10-16T03:12:04.608Z,23.32
2018-10-16T03:14:32.888Z,28.05
2018-10-16T03:17:01.184Z,20.48
2018-10-16T03:19:29.505Z,23.32
2018-10-16T03:21:57.859Z,30.20
2018-10-16T03:24:26.133Z,35.67
2018-10-16T03:26:54.433Z,23.50
2018-10-16T03:29:22.778Z,24.25
2018-10-16T03:31:51.233Z,29.30
2018-10-16T03:34:19.540Z,23.02
2018-10-16T03:36:47.968Z,24.82
2018-10-16T03:39:16.287Z,23.98
2018-10-16T03:41:44.568Z,26.02
2018-10-16T03:44:14.002Z,26.00
2018-10-16T03:46:42.315Z,32.20
2018-10-16T03:49:11.421Z,23.23
2018-10-16T03:51:40.682Z,24.93
2018-10-16T03:54:09.581Z,24.67
2018-10-16T03:56:38.052Z,20.48
2018-10-16T03:59:06.637Z,23.50
2018-10-16T04:01:35.009Z,27.50
2018-10-16T04:04:03.355Z,28.38
2018-10-16T04:06:32.451Z,23.07
2018-10-16T04:09:00.746Z,28.02
2018-10-16T04:11:29.376Z,28.27
2018-10-16T04:13:57.781Z,22.15
2018-10-16T04:16:26.173Z,23.27
2018-10-16T04:18:54.437Z,32.05
2018-10-16T04:21:22.752Z,25.68
2018-10-16T04:23:51.079Z,27.17
2018-10-16T04:26:19.428Z,22.55
2018-10-16T04:28:47.746Z,23.15
2018-10-16T04:31:16.151Z,25.68
2018-10-16T04:33:44.730Z,23.35
2018-10-16T04:36:13.458Z,25.17
2018-10-16T04:38:41.770Z,21.48
2018-10-16T04:41:10.085Z,31.40
2018-10-16T04:43:38.463Z,23.83
2018-10-16T04:46:06.679Z,21.50
2018-10-16T04:48:34.986Z,29.42
2018-10-16T04:51:03.672Z,24.15
2018-10-16T04:53:32.153Z,21.02
2018-10-16T04:56:00.444Z,23.15
2018-10-16T04:58:28.759Z,25.20
2018-10-16T05:00:57.117Z,27.95
2018-10-16T05:03:25.532Z,28.80
2018-10-16T05:05:53.996Z,24.57
2018-10-16T05:08:23.031Z,22.93
2018-10-16T05:10:51.391Z,29.15
2018-10-16T05:13:19.844Z,27.90
2018-10-16T05:15:48.283Z,31.65
2018-10-16T05:18:16.611Z,25.90
2018-10-16T05:20:45.230Z,26.10
2018-10-16T05:23:13.543Z,30.82
2018-10-16T05:25:41.832Z,24.00
2018-10-16T05:28:10.577Z,21.93
2018-10-16T05:30:38.868Z,33.23
2018-10-16T05:33:07.157Z,33.38
2018-10-16T05:35:35.609Z,27.50
2018-10-16T05:38:03.940Z,29.65
2018-10-16T05:40:32.225Z,27.50
2018-10-16T05:43:00.799Z,28.70
2018-10-16T05:45:31.350Z,28.55
2018-10-16T05:47:59.662Z,28.02
2018-10-16T05:50:27.973Z,28.40
2018-10-16T05:52:56.340Z,27.00
2018-10-16T05:55:24.716Z,40.55
2018-10-16T05:57:53.082Z,35.23
2018-10-16T06:00:35.200Z,26.85
2018-10-16T06:03:03.828Z,28.30
2018-10-16T06:05:32.313Z,31.12
2018-10-16T06:08:00.611Z,27.73
2018-10-16T06:10:28.932Z,28.55
2018-10-16T06:12:57.244Z,23.70
2018-10-16T06:15:25.655Z,25.92
2018-10-16T06:17:54.249Z,31.68
2018-10-16T06:20:22.596Z,24.40
2018-10-16T06:22:50.928Z,45.65
2018-10-16T06:25:19.243Z,46.77
2018-10-16T06:27:47.688Z,35.03
2018-10-16T06:30:16.294Z,27.80
2018-10-16T06:32:44.646Z,31.23
2018-10-16T06:35:13.076Z,24.15
2018-10-16T06:37:41.424Z,30.17
2018-10-16T06:40:10.493Z,24.82
2018-10-16T06:42:39.318Z,27.37
2018-10-16T06:45:09.381Z,26.10
2018-10-16T06:47:37.802Z,25.62
2018-10-16T06:50:07.761Z,28.52
2018-10-16T06:52:42.507Z,25.72
2018-10-16T06:55:10.851Z,27.25
2018-10-16T06:57:39.256Z,29.92
2018-10-16T07:00:08.122Z,40.88
2018-10-16T07:02:36.357Z,29.02
2018-10-16T07:05:05.850Z,28.50
2018-10-16T07:07:34.199Z,29.90
2018-10-16T07:10:02.589Z,26.10
2018-10-16T07:12:30.886Z,32.88
2018-10-16T07:14:59.208Z,27.52
2018-10-16T07:17:27.547Z,27.35
2018-10-16T07:19:55.844Z,24.75
2018-10-16T07:22:24.137Z,25.90
2018-10-16T07:24:52.495Z,29.02
2018-10-16T07:27:20.768Z,25.20
2018-10-16T07:29:49.305Z,27.10
2018-10-16T07:32:17.593Z,36.28
2018-10-16T07:34:45.992Z,27.60
2018-10-16T07:37:14.420Z,27.07
2018-10-16T07:39:42.861Z,24.97
2018-10-16T07:42:11.320Z,28.60
2018-10-16T07:44:39.650Z,37.08
2018-10-16T07:47:08.443Z,27.50
2018-10-16T07:49:36.956Z,34.63
2018-10-16T07:52:05.263Z,37.30
2018-10-16T07:54:33.701Z,30.13
2018-10-16T07:57:02.206Z,31.97
2018-10-16T07:59:30.499Z,31.07
2018-10-16T08:01:59.611Z,28.70
2018-10-16T08:04:27.883Z,23.90
2018-10-16T08:06:56.450Z,26.57
2018-10-16T08:09:25.054Z,27.00
2018-10-16T08:11:53.420Z,24.77
2018-10-16T08:14:22.083Z,21.47
2018-10-16T08:16:51.001Z,26.27
2018-10-16T08:19:19.292Z,25.47
2018-10-16T08:21:48.222Z,31.43
2018-10-16T08:24:16.535Z,25.03
2018-10-16T08:26:45.117Z,22.10
2018-10-16T08:29:13.365Z,20.03
2018-10-16T08:31:41.884Z,22.93
2018-10-16T08:34:10.377Z,31.93
2018-10-16T08:36:38.900Z,22.73
2018-10-16T08:39:16.976Z,26.40
2018-10-16T08:42:53.996Z,20.40
2018-10-16T08:45:33.966Z,31.73
2018-10-16T08:48:13.703Z,22.60
2018-10-16T08:50:53.169Z,20.27
2018-10-16T08:53:27.912Z,25.33
2018-10-16T08:55:56.352Z,26.90
2018-10-16T08:58:24.809Z,28.83
2018-10-16T09:00:53.138Z,24.83
2018-10-16T09:03:21.416Z,27.63
2018-10-16T09:05:49.704Z,31.00
2018-10-16T09:08:18.047Z,27.20
2018-10-16T09:10:46.609Z,29.77
2018-10-16T09:13:15.072Z,28.03
2018-10-16T09:15:43.315Z,27.10
2018-10-16T09:18:11.628Z,22.13
2018-10-16T09:20:40.034Z,29.87
2018-10-16T09:23:08.349Z,25.00
2018-10-16T09:25:36.628Z,25.70
2018-10-16T09:28:05.856Z,27.10
2018-10-16T09:30:34.152Z,24.37
2018-10-16T09:33:02.507Z,20.00
2018-10-16T09:35:30.822Z,23.30
2018-10-16T09:37:59.214Z,29.50
2018-10-16T09:40:27.484Z,29.33
2018-10-16T09:42:55.826Z,27.73
2018-10-16T09:45:24.172Z,28.80
2018-10-16T09:47:52.716Z,20.57
2018-10-16T09:50:21.018Z,21.00
2018-10-16T09:52:49.366Z,17.97
2018-10-16T09:55:17.605Z,24.47
2018-10-16T09:57:46.030Z,20.07
2018-10-16T10:00:19.660Z,27.53
2018-10-16T10:02:47.987Z,23.70
2018-10-16T10:05:16.409Z,20.60
2018-10-16T10:07:44.890Z,23.70
2018-10-16T10:10:13.243Z,24.67
2018-10-16T10:12:41.711Z,25.10
2018-10-16T10:15:10.135Z,28.70
2018-10-16T10:17:39.395Z,18.33
2018-10-16T10:20:08.370Z,17.63
2018-10-16T10:22:36.636Z,18.63
2018-10-16T10:25:05.682Z,17.23
2018-10-16T10:27:34.089Z,18.07
2018-10-16T10:30:02.993Z,21.50
2018-10-16T10:32:31.656Z,25.87
2018-10-16T10:35:00.451Z,16.60
2018-10-16T10:37:28.853Z,12.50
2018-10-16T10:39:57.243Z,13.07
2018-10-16T10:42:25.789Z,21.63
2018-10-16T10:44:54.127Z,14.90
2018-10-16T10:47:22.584Z,23.70
2018-10-16T10:49:51.168Z,21.00
2018-10-16T10:52:19.530Z,16.80
2018-10-16T10:54:48.205Z,15.53
2018-10-16T10:57:16.566Z,15.67
2018-10-16T10:59:44.873Z,22.07
2018-10-16T11:02:13.268Z,16.07
2018-10-16T11:04:41.593Z,16.70
2018-10-16T11:07:09.889Z,20.50
2018-10-16T11:09:38.200Z,16.43
2018-10-16T11:12:06.714Z,14.50
2018-10-16T11:14:34.985Z,19.60
2018-10-16T11:17:03.327Z,15.27
2018-10-16T11:19:31.684Z,17.03
2018-10-16T11:22:01.130Z,24.00
2018-10-16T11:24:31.015Z,19.80
2018-10-16T11:26:59.381Z,18.93
2018-10-16T11:29:27.759Z,20.10
2018-10-16T11:31:56.106Z,15.73
2018-10-16T11:34:24.374Z,17.20
2018-10-16T11:36:52.705Z,12.43
2018-10-16T11:39:21.232Z,14.00
2018-10-16T11:41:49.527Z,15.97
2018-10-16T11:44:17.956Z,12.00
2018-10-16T11:46:46.277Z,14.57
2018-10-16T11:49:14.744Z,12.53
2018-10-16T11:51:43.040Z,22.03
2018-10-16T11:54:11.354Z,10.40
2018-10-16T11:56:39.844Z,13.43
2018-10-16T11:59:08.234Z,16.40
2018-10-16T12:01:36.911Z,18.60
2018-10-16T12:04:08.053Z,14.60
2018-10-16T12:06:36.400Z,19.90
2018-10-16T12:09:07.758Z,14.00
2018-10-16T12:11:36.317Z,15.30
2018-10-16T12:14:05.454Z,13.33
2018-10-16T12:16:37.564Z,11.93
2018-10-16T12:19:10.937Z,11.63
2018-10-16T12:21:39.378Z,11.17
2018-10-16T12:24:07.778Z,15.33
2018-10-16T12:26:38.571Z,10.33
2018-10-16T12:29:07.117Z,9.53
2018-10-16T12:31:35.353Z,11.70
2018-10-16T12:34:03.746Z,14.57
2018-10-16T12:36:32.183Z,9.20
2018-10-16T12:39:00.706Z,11.77
2018-10-16T12:41:29.091Z,9.63
2018-10-16T12:43:57.423Z,15.10
2018-10-16T12:46:25.703Z,8.90
2018-10-16T12:48:53.979Z,13.30
2018-10-16T12:51:22.432Z,10.90
2018-10-16T12:53:51.747Z,13.37
2018-10-16T12:56:20.199Z,7.50
2018-10-16T12:58:48.624Z,9.13
2018-10-16T13:01:17.043Z,9.07
2018-10-16T13:03:45.554Z,7.83
2018-10-16T13:06:13.908Z,8.37
2018-10-16T13:08:42.310Z,10.07
2018-10-16T13:11:10.784Z,7.60
2018-10-16T13:13:39.221Z,12.77
2018-10-16T13:16:07.676Z,8.90
2018-10-16T13:18:36.229Z,8.73
2018-10-16T13:21:05.056Z,13.00
2018-10-16T13:23:33.559Z,9.00
2018-10-16T13:26:01.947Z,8.10
2018-10-16T13:28:30.782Z,10.73
2018-10-16T13:30:59.123Z,9.90
2018-10-16T13:33:27.387Z,10.93
2018-10-16T13:35:55.824Z,13.83
2018-10-16T13:38:24.084Z,9.97
2018-10-16T13:40:52.575Z,13.00
2018-10-16T13:43:20.849Z,9.30
2018-10-16T13:45:49.179Z,8.70
2018-10-16T13:48:17.432Z,9.47
2018-10-16T13:50:45.746Z,10.53
2018-10-16T13:53:14.010Z,8.80
2018-10-16T13:55:42.322Z,11.43
2018-10-16T13:58:10.693Z,8.80
2018-10-16T14:00:38.880Z,9.53
2018-10-16T14:03:07.165Z,12.50
2018-10-16T14:05:35.673Z,10.37
2018-10-16T14:08:04.023Z,9.33
2018-10-16T14:10:32.224Z,13.03
2018-10-16T14:13:00.527Z,9.17
2018-10-16T14:15:28.876Z,8.70
2018-10-16T14:17:57.311Z,11.07
2018-10-16T14:20:25.767Z,9.90
2018-10-16T14:22:54.125Z,13.33
2018-10-16T14:25:22.423Z,7.90
2018-10-16T14:27:50.842Z,11.90
2018-10-16T14:30:19.047Z,12.93
2018-10-16T14:32:47.317Z,10.77
2018-10-16T14:35:15.764Z,14.87
2018-10-16T14:37:44.036Z,7.83
2018-10-16T14:40:14.006Z,12.17
2018-10-16T14:42:42.503Z,9.50
2018-10-16T14:45:11.717Z,15.10
2018-10-16T14:47:40.167Z,10.67
2018-10-16T14:50:09.442Z,10.40
2018-10-16T14:52:37.718Z,15.50
2018-10-16T14:55:06.426Z,9.20
2018-10-16T14:57:35.075Z,8.43
2018-10-16T15:00:03.806Z,17.93
2018-10-16T15:02:32.303Z,13.57
2018-10-16T15:05:01.885Z,12.77
2018-10-16T15:07:30.301Z,7.90
2018-10-16T15:09:58.901Z,10.37
2018-10-16T15:12:33.201Z,14.50
2018-10-16T15:15:02.694Z,8.20
2018-10-16T15:17:32.140Z,11.03
2018-10-16T15:20:00.763Z,10.47
2018-10-16T15:22:29.311Z,7.83
2018-10-16T15:24:58.246Z,11.60
2018-10-16T15:27:26.521Z,31.93
2018-10-16T15:29:54.919Z,8.17
2018-10-16T15:32:23.406Z,11.13
2018-10-16T15:34:51.866Z,9.17
2018-10-16T15:37:20.181Z,10.30
2018-10-16T15:39:48.553Z,18.33
2018-10-16T15:42:16.953Z,27.83
2018-10-16T15:44:45.275Z,13.60
2018-10-16T15:47:13.720Z,16.47
2018-10-16T15:49:42.228Z,14.23
2018-10-16T15:52:10.694Z,19.87
2018-10-16T15:54:39.090Z,13.50
2018-10-16T15:57:07.463Z,21.00
2018-10-16T15:59:35.775Z,21.90
2018-10-16T16:02:04.152Z,28.53
2018-10-16T16:04:32.510Z,23.50
2018-10-16T16:07:00.900Z,29.30
2018-10-16T16:09:29.334Z,15.33
2018-10-16T16:11:57.640Z,26.40
2018-10-16T16:14:26.116Z,36.33
2018-10-16T16:16:54.588Z,17.83
2018-10-16T16:19:22.985Z,19.87
2018-10-16T16:21:51.576Z,22.87
2018-10-16T16:24:20.036Z,20.60
2018-10-16T16:26:48.688Z,16.33
2018-10-16T16:29:17.010Z,30.63
2018-10-16T16:31:45.341Z,19.87
2018-10-16T16:34:13.923Z,13.67
2018-10-16T16:36:42.319Z,18.93
2018-10-16T16:39:12.711Z,21.33
2018-10-16T16:41:41.116Z,22.93
2018-10-16T16:44:09.599Z,20.27
2018-10-16T16:46:38.162Z,19.80
2018-10-16T16:49:06.819Z,19.13
2018-10-16T16:51:35.125Z,16.13
2018-10-16T16:54:03.408Z,16.30
2018-10-16T16:56:31.806Z,21.73
2018-10-16T16:59:00.192Z,31.70
2018-10-16T17:01:28.668Z,17.60
2018-10-16T17:03:56.965Z,17.93
2018-10-16T17:06:26.026Z,16.53
2018-10-16T17:08:54.633Z,15.90
2018-10-16T17:11:23.006Z,23.53
2018-10-16T17:13:51.336Z,18.20
2018-10-16T17:16:19.923Z,21.67
2018-10-16T17:18:48.259Z,18.63
2018-10-16T17:21:16.847Z,19.60
2018-10-16T17:23:45.084Z,18.30
2018-10-16T17:26:13.835Z,16.33
2018-10-16T17:28:41.845Z,16.17
2018-10-16T17:31:10.332Z,18.63
2018-10-16T17:33:38.829Z,22.00
2018-10-16T17:36:07.219Z,27.20
2018-10-16T17:38:35.609Z,13.87
2018-10-16T17:41:04.005Z,16.73
2018-10-16T17:43:32.436Z,21.27
2018-10-16T17:46:00.851Z,25.90
2018-10-16T17:48:29.437Z,25.67
2018-10-16T17:50:57.916Z,22.03
2018-10-16T17:53:31.663Z,26.20
2018-10-16T17:56:00.199Z,18.10
2018-10-16T17:58:28.627Z,23.17
2018-10-16T18:00:57.094Z,27.70
2018-10-16T18:03:25.448Z,17.17
2018-10-16T18:05:54.056Z,21.03
2018-10-16T18:08:22.461Z,24.80
2018-10-16T18:10:50.773Z,19.40
2018-10-16T18:13:19.236Z,27.67
2018-10-16T18:15:47.533Z,28.87
2018-10-16T18:18:15.880Z,26.43
2018-10-16T18:20:44.159Z,20.03
2018-10-16T18:23:12.457Z,26.63
2018-10-16T18:25:40.808Z,20.03
2018-10-16T18:28:09.079Z,16.83
2018-10-16T18:30:37.614Z,27.37
2018-10-16T18:33:07.029Z,23.23
2018-10-16T18:35:35.418Z,19.43
2018-10-16T18:38:03.798Z,15.00
2018-10-16T18:40:32.215Z,23.27
2018-10-16T18:43:00.534Z,24.07
2018-10-16T18:45:28.863Z,28.43
2018-10-16T18:47:57.286Z,27.53
2018-10-16T18:50:25.538Z,28.27
2018-10-16T18:52:53.949Z,21.63
2018-10-16T18:55:22.206Z,30.93
2018-10-16T18:57:50.560Z,19.77
2018-10-16T19:00:19.643Z,29.37
2018-10-16T19:02:48.464Z,33.17
2018-10-16T19:05:16.921Z,31.83
2018-10-16T19:07:45.275Z,24.27
2018-10-16T19:10:13.674Z,16.37
2018-10-16T19:12:42.433Z,19.10
2018-10-16T19:15:13.276Z,27.03
2018-10-16T19:17:42.655Z,25.53
2018-10-16T19:20:12.709Z,23.10
2018-10-16T19:22:41.585Z,19.03
2018-10-16T19:25:10.847Z,29.53
2018-10-16T19:27:39.336Z,23.23
2018-10-16T19:30:11.895Z,27.60
2018-10-16T19:32:40.237Z,28.30
2018-10-16T19:35:09.691Z,25.07
2018-10-16T19:37:38.020Z,21.33
2018-10-16T19:40:06.660Z,26.53
2018-10-16T19:42:35.238Z,26.47
2018-10-16T19:45:04.493Z,26.47
2018-10-16T19:47:32.870Z,26.83
2018-10-16T19:50:03.454Z,23.27
2018-10-16T19:52:37.173Z,31.27
2018-10-16T19:55:05.928Z,29.03
2018-10-16T19:57:35.204Z,34.27
2018-10-16T20:00:05.189Z,28.57
2018-10-16T20:02:33.572Z,29.77
2018-10-16T20:05:02.995Z,26.13
2018-10-16T20:07:31.311Z,23.80
2018-10-16T20:09:59.569Z,23.10
2018-10-16T20:12:27.851Z,23.90
2018-10-16T20:14:56.220Z,21.87
2018-10-16T20:17:24.843Z,21.57
2018-10-16T20:19:53.084Z,19.00
2018-10-16T20:22:22.166Z,19.70
2018-10-16T20:24:51.425Z,24.27
2018-10-16T20:27:19.597Z,22.33
2018-10-16T20:29:47.956Z,30.60
2018-10-16T20:32:16.355Z,20.67
2018-10-16T20:34:44.684Z,26.03
2018-10-16T20:37:13.131Z,32.17
2018-10-16T20:39:41.359Z,25.43
2018-10-16T20:42:09.888Z,29.13
2018-10-16T20:44:38.772Z,23.83
2018-10-16T20:47:07.373Z,27.20
2018-10-16T20:49:36.428Z,23.63
2018-10-16T20:52:05.680Z,19.30
2018-10-16T20:54:34.007Z,25.80
2018-10-16T20:57:02.307Z,20.33
2018-10-16T20:59:30.588Z,23.77
2018-10-16T21:01:58.915Z,22.03
2018-10-16T21:04:27.374Z,23.57
2018-10-16T21:06:55.864Z,28.60
2018-10-16T21:09:23.941Z,28.10
2018-10-16T21:11:52.255Z,20.60
2018-10-16T21:14:20.618Z,25.03
2018-10-16T21:16:48.952Z,22.00
2018-10-16T21:19:17.395Z,21.40
2018-10-16T21:21:45.657Z,22.10
2018-10-16T21:24:13.963Z,25.40
2018-10-16T21:26:42.425Z,29.93
2018-10-16T21:29:10.985Z,23.13
2018-10-16T21:31:39.274Z,25.90
2018-10-16T21:35:36.828Z,26.00
2018-10-16T21:38:05.174Z,27.63
2018-10-16T21:40:33.633Z,22.77
2018-10-16T21:43:02.036Z,28.87
2018-10-16T21:45:30.331Z,24.13
2018-10-16T21:47:58.618Z,28.07
2018-10-16T21:50:26.889Z,25.43
2018-10-16T21:52:55.244Z,29.90
2018-10-16T21:55:23.557Z,24.40
2018-10-16T21:57:51.853Z,44.97
2018-10-16T22:00:25.504Z,28.47
2018-10-16T22:02:53.884Z,27.63
2018-10-16T22:05:23.611Z,30.70
2018-10-16T22:07:53.659Z,24.23
2018-10-16T22:10:22.533Z,33.40
2018-10-16T22:12:51.205Z,26.87
2018-10-16T22:15:20.464Z,29.83
2018-10-16T22:17:49.026Z,27.67
2018-10-16T22:20:17.381Z,34.80
2018-10-16T22:22:46.629Z,26.43
2018-10-16T22:25:15.541Z,30.07
2018-10-16T22:27:43.874Z,24.47
2018-10-16T22:30:12.187Z,28.33
2018-10-16T22:32:40.586Z,27.60
2018-10-16T22:35:10.251Z,30.60
2018-10-16T22:37:38.511Z,27.23
2018-10-16T22:40:08.111Z,33.90
2018-10-16T22:42:36.632Z,30.57
2018-10-16T22:45:05.893Z,33.10
2018-10-16T22:47:34.229Z,28.17
2018-10-16T22:50:02.602Z,29.17
2018-10-16T22:52:31.606Z,34.67
2018-10-16T22:54:59.938Z,25.47
2018-10-16T22:57:28.289Z,26.30
2018-10-16T22:59:56.628Z,23.70
2018-10-16T23:02:24.884Z,28.73
2018-10-16T23:04:53.375Z,29.30
2018-10-16T23:07:21.713Z,32.30
2018-10-16T23:09:49.975Z,28.07
2018-10-16T23:12:18.435Z,35.33
2018-10-16T23:14:46.753Z,25.90
2018-10-16T23:17:15.212Z,28.43
2018-10-16T23:19:43.478Z,28.93
2018-10-16T23:22:11.807Z,37.87
2018-10-16T23:24:40.093Z,26.93
2018-10-16T23:27:08.380Z,29.60
2018-10-16T23:29:37.274Z,28.70
2018-10-16T23:32:06.554Z,27.60
2018-10-16T23:34:34.835Z,31.53
2018-10-16T23:37:03.460Z,35.43
2018-10-16T23:39:31.688Z,27.90
2018-10-16T23:41:59.945Z,27.50
2018-10-16T23:44:28.378Z,33.60
2018-10-16T23:46:56.762Z,33.33
2018-10-16T23:49:25.013Z,26.70
2018-10-16T23:51:53.755Z,35.07
2018-10-16T23:54:22.086Z,29.40
2018-10-16T23:56:50.409Z,33.30
2018-10-16T23:59:18.749Z,27.83
